createdAt,value
2018-04-19T00:01:17.926Z,1023.25
2018-04-19T00:02:17.914Z,1023.24
2018-04-19T00:04:11.483Z,1023.24
2018-04-19T00:05:11.427Z,1023.28
2018-04-19T00:07:05.095Z,1023.25
2018-04-19T00:08:05.079Z,1023.26
2018-04-19T00:09:58.835Z,1023.25
2018-04-19T00:10:58.781Z,1023.27
2018-04-19T00:12:52.367Z,1023.25
2018-04-19T00:13:52.355Z,1023.26
2018-04-19T00:15:46.023Z,1023.28
2018-04-19T00:16:45.987Z,1023.26
2018-04-19T00:18:39.688Z,1023.25
2018-04-19T00:19:39.652Z,1023.24
2018-04-19T00:21:33.252Z,1023.23
2018-04-19T00:22:33.214Z,1023.27
2018-04-19T00:24:28.656Z,1023.23
2018-04-19T00:25:28.012Z,1023.21
2018-04-19T00:27:21.688Z,1023.18
2018-04-19T00:28:21.686Z,1023.22
2018-04-19T00:30:16.113Z,1023.11
2018-04-19T00:31:15.385Z,1023.12
2018-04-19T00:33:09.068Z,1023.09
2018-04-19T00:34:09.029Z,1023.16
2018-04-19T00:36:02.578Z,1023.10
2018-04-19T00:37:02.536Z,1023.10
2018-04-19T00:38:56.120Z,1023.07
2018-04-19T00:39:56.098Z,1023.05
2018-04-19T00:41:50.549Z,1023.02
2018-04-19T00:42:49.651Z,1023.03
2018-04-19T00:44:43.224Z,1023.01
2018-04-19T00:45:43.207Z,1023.00
2018-04-19T00:47:37.648Z,1022.98
2018-04-19T00:48:36.745Z,1023.01
2018-04-19T00:50:31.196Z,1022.97
2018-04-19T00:51:30.362Z,1022.99
2018-04-19T00:53:23.940Z,1022.96
2018-04-19T00:54:23.924Z,1022.94
2018-04-19T00:56:17.632Z,1022.91
2018-04-19T00:57:17.604Z,1022.89
2018-04-19T00:59:12.041Z,1022.87
2018-04-19T01:00:11.283Z,1022.87
2018-04-19T01:02:05.723Z,1022.85
2018-04-19T01:03:04.905Z,1022.86
2018-04-19T01:04:58.591Z,1022.82
2018-04-19T01:05:58.531Z,1022.85
2018-04-19T01:07:52.399Z,1022.79
2018-04-19T01:08:52.163Z,1022.82
2018-04-19T01:09:52.162Z,1022.80
2018-04-19T01:10:52.157Z,1022.78
2018-04-19T01:11:52.150Z,1022.77
2018-04-19T01:12:52.144Z,1022.76
2018-04-19T01:13:52.140Z,1022.77
2018-04-19T01:14:52.142Z,1022.73
2018-04-19T01:15:52.133Z,1022.72
2018-04-19T01:16:52.136Z,1022.73
2018-04-19T01:17:52.123Z,1022.73
2018-04-19T01:18:52.123Z,1022.74
2018-04-19T01:19:52.114Z,1022.72
2018-04-19T01:20:52.107Z,1022.71
2018-04-19T01:21:52.097Z,1022.70
2018-04-19T01:22:52.100Z,1022.71
2018-04-19T01:23:52.089Z,1022.70
2018-04-19T01:24:52.092Z,1022.66
2018-04-19T01:25:52.081Z,1022.68
2018-04-19T01:26:52.075Z,1022.70
2018-04-19T01:27:52.074Z,1022.70
2018-04-19T01:28:52.069Z,1022.69
2018-04-19T01:29:52.065Z,1022.66
2018-04-19T01:30:52.053Z,1022.65
2018-04-19T01:31:52.053Z,1022.64
2018-04-19T01:32:52.044Z,1022.63
2018-04-19T01:33:52.279Z,1022.64
2018-04-19T01:34:52.037Z,1022.62
2018-04-19T01:35:52.034Z,1022.63
2018-04-19T01:36:52.030Z,1022.65
2018-04-19T01:37:52.027Z,1022.63
2018-04-19T01:38:52.022Z,1022.63
2018-04-19T01:39:52.009Z,1022.63
2018-04-19T01:40:52.015Z,1022.62
2018-04-19T01:41:52.001Z,1022.63
2018-04-19T01:42:51.997Z,1022.62
2018-04-19T01:43:51.993Z,1022.60
2018-04-19T01:44:51.990Z,1022.61
2018-04-19T01:45:51.988Z,1022.62
2018-04-19T01:46:51.974Z,1022.63
2018-04-19T01:47:51.968Z,1022.60
2018-04-19T01:48:51.964Z,1022.62
2018-04-19T01:49:51.963Z,1022.61
2018-04-19T01:50:51.957Z,1022.61
2018-04-19T01:51:51.950Z,1022.61
2018-04-19T01:52:51.948Z,1022.62
2018-04-19T01:53:51.941Z,1022.64
2018-04-19T01:54:51.935Z,1022.61
2018-04-19T01:55:51.937Z,1022.60
2018-04-19T01:56:51.927Z,1022.59
2018-04-19T01:57:51.924Z,1022.55
2018-04-19T01:58:51.915Z,1022.57
2018-04-19T01:59:51.956Z,1022.53
2018-04-19T02:00:51.905Z,1022.51
2018-04-19T02:01:51.902Z,1022.50
2018-04-19T02:02:51.891Z,1022.50
2018-04-19T02:03:51.885Z,1022.52
2018-04-19T02:04:51.885Z,1022.57
2018-04-19T02:05:51.882Z,1022.54
2018-04-19T02:06:51.887Z,1022.51
2018-04-19T02:07:51.865Z,1022.49
2018-04-19T02:08:51.862Z,1022.48
2018-04-19T02:09:51.858Z,1022.49
2018-04-19T02:10:51.851Z,1022.48
2018-04-19T02:11:51.852Z,1022.51
2018-04-19T02:12:51.843Z,1022.47
2018-04-19T02:13:51.838Z,1022.47
2018-04-19T02:14:51.829Z,1022.44
2018-04-19T02:15:51.823Z,1022.45
2018-04-19T02:16:51.826Z,1022.48
2018-04-19T02:17:51.821Z,1022.43
2018-04-19T02:18:51.815Z,1022.43
2018-04-19T02:19:51.811Z,1022.38
2018-04-19T02:20:51.801Z,1022.38
2018-04-19T02:21:51.798Z,1022.40
2018-04-19T02:22:51.788Z,1022.36
2018-04-19T02:23:51.786Z,1022.38
2018-04-19T02:24:51.775Z,1022.35
2018-04-19T02:25:51.776Z,1022.36
2018-04-19T02:26:51.772Z,1022.37
2018-04-19T02:27:51.767Z,1022.38
2018-04-19T02:28:51.756Z,1022.35
2018-04-19T02:29:51.751Z,1022.34
2018-04-19T02:30:51.750Z,1022.37
2018-04-19T02:31:51.743Z,1022.32
2018-04-19T02:32:51.740Z,1022.31
2018-04-19T02:33:51.738Z,1022.30
2018-04-19T02:34:51.726Z,1022.31
2018-04-19T02:35:51.720Z,1022.26
2018-04-19T02:36:51.714Z,1022.31
2018-04-19T02:37:51.718Z,1022.29
2018-04-19T02:38:51.711Z,1022.24
2018-04-19T02:39:51.699Z,1022.27
2018-04-19T02:40:51.696Z,1022.30
2018-04-19T02:41:51.690Z,1022.26
2018-04-19T02:42:51.681Z,1022.24
2018-04-19T02:43:51.676Z,1022.22
2018-04-19T02:44:51.673Z,1022.23
2018-04-19T02:45:51.668Z,1022.23
2018-04-19T02:46:51.661Z,1022.17
2018-04-19T02:47:51.657Z,1022.18
2018-04-19T02:48:51.659Z,1022.18
2018-04-19T02:49:51.643Z,1022.18
2018-04-19T02:50:51.639Z,1022.17
2018-04-19T02:51:51.633Z,1022.15
2018-04-19T02:52:51.630Z,1022.16
2018-04-19T02:53:51.625Z,1022.12
2018-04-19T02:54:51.620Z,1022.13
2018-04-19T02:55:51.617Z,1022.10
2018-04-19T02:56:51.604Z,1022.08
2018-04-19T02:57:51.601Z,1022.05
2018-04-19T02:58:51.603Z,1022.07
2018-04-19T02:59:51.592Z,1022.06
2018-04-19T03:00:51.585Z,1022.03
2018-04-19T03:01:51.581Z,1022.00
2018-04-19T03:02:51.574Z,1022.02
2018-04-19T03:03:51.569Z,1022.02
2018-04-19T03:04:51.563Z,1022.04
2018-04-19T03:05:51.564Z,1022.03
2018-04-19T03:06:51.558Z,1022.07
2018-04-19T03:07:51.547Z,1022.02
2018-04-19T03:08:51.543Z,1022.00
2018-04-19T03:09:51.539Z,1022.01
2018-04-19T03:10:51.530Z,1022.02
2018-04-19T03:11:51.523Z,1022.00
2018-04-19T03:12:51.519Z,1022.00
2018-04-19T03:13:51.516Z,1021.94
2018-04-19T03:14:51.511Z,1021.99
2018-04-19T03:15:51.504Z,1021.96
2018-04-19T03:16:51.497Z,1021.97
2018-04-19T03:17:51.489Z,1021.93
2018-04-19T03:18:51.485Z,1021.92
2018-04-19T03:19:51.477Z,1021.92
2018-04-19T03:20:51.471Z,1021.90
2018-04-19T03:21:51.465Z,1021.89
2018-04-19T03:22:51.464Z,1021.87
2018-04-19T03:23:51.457Z,1021.87
2018-04-19T03:24:51.449Z,1021.86
2018-04-19T03:25:51.445Z,1021.87
2018-04-19T03:26:51.445Z,1021.89
2018-04-19T03:27:51.437Z,1021.91
2018-04-19T03:28:51.432Z,1021.87
2018-04-19T03:29:51.424Z,1021.85
2018-04-19T03:30:51.415Z,1021.85
2018-04-19T03:31:51.412Z,1021.82
2018-04-19T03:32:51.407Z,1021.81
2018-04-19T03:33:51.405Z,1021.81
2018-04-19T03:34:51.398Z,1021.84
2018-04-19T03:35:51.393Z,1021.81
2018-04-19T03:36:51.389Z,1021.80
2018-04-19T03:37:51.382Z,1021.82
2018-04-19T03:38:51.369Z,1021.85
2018-04-19T03:39:51.363Z,1021.83
2018-04-19T03:40:51.361Z,1021.84
2018-04-19T03:41:51.361Z,1021.86
2018-04-19T03:42:51.355Z,1021.83
2018-04-19T03:43:51.344Z,1021.85
2018-04-19T03:44:51.341Z,1021.85
2018-04-19T03:45:51.333Z,1021.82
2018-04-19T03:46:51.331Z,1021.82
2018-04-19T03:47:51.319Z,1021.82
2018-04-19T03:48:51.317Z,1021.83
2018-04-19T03:49:51.313Z,1021.81
2018-04-19T03:50:51.307Z,1021.82
2018-04-19T03:51:51.294Z,1021.84
2018-04-19T03:52:51.293Z,1021.84
2018-04-19T03:53:51.340Z,1021.86
2018-04-19T03:54:51.284Z,1021.85
2018-04-19T03:55:51.279Z,1021.82
2018-04-19T03:56:51.265Z,1021.85
2018-04-19T03:57:51.262Z,1021.86
2018-04-19T03:58:51.259Z,1021.85
2018-04-19T03:59:51.250Z,1021.83
2018-04-19T04:00:51.247Z,1021.84
2018-04-19T04:01:51.257Z,1021.84
2018-04-19T04:02:51.233Z,1021.81
2018-04-19T04:03:51.231Z,1021.81
2018-04-19T04:04:51.225Z,1021.79
2018-04-19T04:05:51.220Z,1021.80
2018-04-19T04:06:51.210Z,1021.77
2018-04-19T04:07:51.206Z,1021.80
2018-04-19T04:08:51.242Z,1021.79
2018-04-19T04:09:51.196Z,1021.82
2018-04-19T04:10:51.192Z,1021.80
2018-04-19T04:11:51.188Z,1021.81
2018-04-19T04:12:51.185Z,1021.79
2018-04-19T04:13:51.170Z,1021.84
2018-04-19T04:14:51.164Z,1021.79
2018-04-19T04:15:51.165Z,1021.79
2018-04-19T04:16:51.153Z,1021.80
2018-04-19T04:17:51.152Z,1021.83
2018-04-19T04:18:51.145Z,1021.83
2018-04-19T04:19:51.137Z,1021.84
2018-04-19T04:20:51.129Z,1021.83
2018-04-19T04:21:51.126Z,1021.85
2018-04-19T04:22:51.121Z,1021.83
2018-04-19T04:23:51.115Z,1021.87
2018-04-19T04:24:51.110Z,1021.87
2018-04-19T04:25:51.101Z,1021.86
2018-04-19T04:26:51.094Z,1021.84
2018-04-19T04:27:51.088Z,1021.86
2018-04-19T04:28:51.090Z,1021.85
2018-04-19T04:29:51.084Z,1021.88
2018-04-19T04:30:51.073Z,1021.87
2018-04-19T04:31:51.069Z,1021.85
2018-04-19T04:32:51.061Z,1021.86
2018-04-19T04:33:51.055Z,1021.89
2018-04-19T04:34:51.046Z,1021.87
2018-04-19T04:35:51.040Z,1021.91
2018-04-19T04:36:51.036Z,1021.89
2018-04-19T04:37:51.030Z,1021.90
2018-04-19T04:38:51.030Z,1021.87
2018-04-19T04:39:51.017Z,1021.88
2018-04-19T04:40:51.015Z,1021.89
2018-04-19T04:41:51.025Z,1021.89
2018-04-19T04:42:51.003Z,1021.90
2018-04-19T04:43:50.995Z,1021.90
2018-04-19T04:44:50.989Z,1021.91
2018-04-19T04:45:50.985Z,1021.91
2018-04-19T04:46:50.978Z,1021.93
2018-04-19T04:47:50.971Z,1021.95
2018-04-19T04:48:50.962Z,1021.97
2018-04-19T04:49:50.960Z,1021.97
2018-04-19T04:50:50.955Z,1021.96
2018-04-19T04:51:50.948Z,1021.95
2018-04-19T04:52:50.943Z,1021.90
2018-04-19T04:53:50.933Z,1021.90
2018-04-19T04:54:50.928Z,1021.91
2018-04-19T04:55:50.924Z,1021.94
2018-04-19T04:56:50.919Z,1021.95
2018-04-19T04:57:50.908Z,1021.96
2018-04-19T04:58:50.905Z,1021.95
2018-04-19T04:59:50.895Z,1022.01
2018-04-19T05:00:50.895Z,1021.97
2018-04-19T05:01:50.884Z,1021.96
2018-04-19T05:02:50.883Z,1021.99
2018-04-19T05:03:50.875Z,1021.97
2018-04-19T05:04:50.871Z,1022.00
2018-04-19T05:05:50.863Z,1021.97
2018-04-19T05:06:50.861Z,1021.96
2018-04-19T05:07:50.850Z,1021.98
2018-04-19T05:08:50.844Z,1022.02
2018-04-19T05:09:50.839Z,1022.05
2018-04-19T05:10:50.841Z,1022.04
2018-04-19T05:11:50.832Z,1022.03
2018-04-19T05:12:50.829Z,1022.03
2018-04-19T05:13:50.818Z,1021.98
2018-04-19T05:14:50.815Z,1022.00
2018-04-19T05:15:50.808Z,1022.01
2018-04-19T05:16:50.804Z,1022.00
2018-04-19T05:17:50.817Z,1022.07
2018-04-19T05:18:50.798Z,1022.07
2018-04-19T05:19:50.790Z,1022.05
2018-04-19T05:20:50.786Z,1022.04
2018-04-19T05:21:50.777Z,1022.10
2018-04-19T05:22:50.773Z,1022.03
2018-04-19T05:23:50.771Z,1022.06
2018-04-19T05:24:50.773Z,1022.04
2018-04-19T05:25:50.767Z,1022.09
2018-04-19T05:26:50.761Z,1022.10
2018-04-19T05:27:50.756Z,1022.16
2018-04-19T05:28:50.747Z,1022.16
2018-04-19T05:29:50.746Z,1022.11
2018-04-19T05:30:50.744Z,1022.13
2018-04-19T05:31:50.736Z,1022.15
2018-04-19T05:32:50.738Z,1022.15
2018-04-19T05:33:50.732Z,1022.12
2018-04-19T05:34:51.566Z,1022.13
2018-04-19T05:35:50.725Z,1022.18
2018-04-19T05:36:50.719Z,1022.16
2018-04-19T05:37:50.715Z,1022.17
2018-04-19T05:38:50.713Z,1022.19
2018-04-19T05:39:50.711Z,1022.20
2018-04-19T05:40:50.706Z,1022.18
2018-04-19T05:41:50.702Z,1022.14
2018-04-19T05:42:50.695Z,1022.19
2018-04-19T05:43:50.716Z,1022.18
2018-04-19T05:44:50.691Z,1022.21
2018-04-19T05:45:50.695Z,1022.22
2018-04-19T05:46:50.687Z,1022.24
2018-04-19T05:47:50.685Z,1022.21
2018-04-19T05:48:50.679Z,1022.23
2018-04-19T05:49:50.682Z,1022.22
2018-04-19T05:50:50.673Z,1022.23
2018-04-19T05:51:50.674Z,1022.25
2018-04-19T05:52:50.671Z,1022.20
2018-04-19T05:53:50.667Z,1022.24
2018-04-19T05:54:50.663Z,1022.20
2018-04-19T05:55:50.653Z,1022.21
2018-04-19T05:56:50.655Z,1022.19
2018-04-19T05:57:50.652Z,1022.22
2018-04-19T05:58:50.649Z,1022.25
2018-04-19T05:59:50.647Z,1022.24
2018-04-19T06:00:50.643Z,1022.18
2018-04-19T06:01:50.636Z,1022.23
2018-04-19T06:02:50.638Z,1022.22
2018-04-19T06:03:50.629Z,1022.20
2018-04-19T06:04:50.633Z,1022.21
2018-04-19T06:05:50.626Z,1022.19
2018-04-19T06:06:50.623Z,1022.18
2018-04-19T06:07:50.619Z,1022.20
2018-04-19T06:08:50.618Z,1022.18
2018-04-19T06:09:50.611Z,1022.17
2018-04-19T06:10:50.605Z,1022.14
2018-04-19T06:11:50.601Z,1022.18
2018-04-19T06:12:50.607Z,1022.13
2018-04-19T06:13:50.616Z,1022.12
2018-04-19T06:14:50.596Z,1022.13
2018-04-19T06:15:50.640Z,1022.13
2018-04-19T06:16:50.593Z,1022.13
2018-04-19T06:17:50.583Z,1022.09
2018-04-19T06:18:50.575Z,1022.14
2018-04-19T06:19:50.589Z,1022.14
2018-04-19T06:20:50.576Z,1022.18
2018-04-19T06:21:50.565Z,1022.20
2018-04-19T06:22:50.569Z,1022.19
2018-04-19T06:23:50.559Z,1022.24
2018-04-19T06:24:50.572Z,1022.22
2018-04-19T06:25:50.555Z,1022.19
2018-04-19T06:26:50.552Z,1022.23
2018-04-19T06:27:50.554Z,1022.17
2018-04-19T06:28:50.541Z,1022.21
2018-04-19T06:29:50.544Z,1022.19
2018-04-19T06:30:50.535Z,1022.23
2018-04-19T06:31:50.532Z,1022.25
2018-04-19T06:32:50.526Z,1022.25
2018-04-19T06:33:50.525Z,1022.26
2018-04-19T06:34:50.522Z,1022.21
2018-04-19T06:35:50.520Z,1022.22
2018-04-19T06:36:50.515Z,1022.24
2018-04-19T06:37:50.511Z,1022.28
2018-04-19T06:38:50.514Z,1022.27
2018-04-19T06:39:50.503Z,1022.27
2018-04-19T06:40:50.499Z,1022.29
2018-04-19T06:41:50.500Z,1022.29
2018-04-19T06:42:50.494Z,1022.34
2018-04-19T06:43:50.495Z,1022.28
2018-04-19T06:44:50.490Z,1022.26
2018-04-19T06:45:50.481Z,1022.32
2018-04-19T06:46:50.478Z,1022.30
2018-04-19T06:47:51.092Z,1022.33
2018-04-19T06:48:50.480Z,1022.30
2018-04-19T06:49:50.468Z,1022.28
2018-04-19T06:50:50.470Z,1022.31
2018-04-19T06:51:50.461Z,1022.29
2018-04-19T06:52:50.460Z,1022.31
2018-04-19T06:53:50.459Z,1022.30
2018-04-19T06:54:50.459Z,1022.31
2018-04-19T06:55:50.456Z,1022.28
2018-04-19T06:56:50.447Z,1022.25
2018-04-19T06:57:50.449Z,1022.27
2018-04-19T06:58:50.447Z,1022.27
2018-04-19T06:59:50.435Z,1022.24
2018-04-19T07:00:50.433Z,1022.27
2018-04-19T07:01:50.431Z,1022.31
2018-04-19T07:02:50.427Z,1022.26
2018-04-19T07:03:50.428Z,1022.24
2018-04-19T07:04:50.424Z,1022.29
2018-04-19T07:05:50.417Z,1022.31
2018-04-19T07:06:50.410Z,1022.31
2018-04-19T07:07:50.407Z,1022.33
2018-04-19T07:08:50.423Z,1022.31
2018-04-19T07:09:50.434Z,1022.29
2018-04-19T07:10:50.400Z,1022.31
2018-04-19T07:11:50.400Z,1022.30
2018-04-19T07:12:50.396Z,1022.29
2018-04-19T07:13:50.390Z,1022.28
2018-04-19T07:14:50.387Z,1022.29
2018-04-19T07:15:50.384Z,1022.27
2018-04-19T07:16:50.379Z,1022.28
2018-04-19T07:17:50.377Z,1022.30
2018-04-19T07:18:50.373Z,1022.30
2018-04-19T07:19:50.370Z,1022.31
2018-04-19T07:20:50.362Z,1022.33
2018-04-19T07:21:50.360Z,1022.32
2018-04-19T07:22:50.358Z,1022.33
2018-04-19T07:23:50.367Z,1022.34
2018-04-19T07:24:50.355Z,1022.36
2018-04-19T07:25:50.388Z,1022.34
2018-04-19T07:26:50.341Z,1022.36
2018-04-19T07:27:50.340Z,1022.35
2018-04-19T07:28:50.352Z,1022.31
2018-04-19T07:29:50.340Z,1022.33
2018-04-19T07:30:50.334Z,1022.36
2018-04-19T07:31:50.327Z,1022.36
2018-04-19T07:32:50.328Z,1022.34
2018-04-19T07:33:50.325Z,1022.35
2018-04-19T07:34:50.321Z,1022.35
2018-04-19T07:35:50.321Z,1022.33
2018-04-19T07:36:50.317Z,1022.34
2018-04-19T07:37:50.315Z,1022.39
2018-04-19T07:38:50.324Z,1022.39
2018-04-19T07:39:50.308Z,1022.42
2018-04-19T07:40:50.307Z,1022.42
2018-04-19T07:41:50.301Z,1022.40
2018-04-19T07:42:50.299Z,1022.40
2018-04-19T07:43:50.296Z,1022.41
2018-04-19T07:44:50.301Z,1022.42
2018-04-19T07:45:50.296Z,1022.46
2018-04-19T07:46:50.294Z,1022.40
2018-04-19T07:47:50.297Z,1022.41
2018-04-19T07:48:50.288Z,1022.39
2018-04-19T07:49:50.297Z,1022.40
2018-04-19T07:50:50.293Z,1022.40
2018-04-19T07:51:50.287Z,1022.41
2018-04-19T07:52:50.287Z,1022.38
2018-04-19T07:53:50.289Z,1022.37
2018-04-19T07:54:50.285Z,1022.36
2018-04-19T07:55:52.097Z,1022.37
2018-04-19T07:56:51.133Z,1022.36
2018-04-19T07:57:52.754Z,1022.38
2018-04-19T07:58:51.633Z,1022.36
2018-04-19T07:59:52.934Z,1022.37
2018-04-19T08:00:50.294Z,1022.38
2018-04-19T08:01:50.490Z,1022.40
2018-04-19T08:02:50.283Z,1022.40
2018-04-19T08:03:50.281Z,1022.43
2018-04-19T08:04:50.283Z,1022.43
2018-04-19T08:05:50.283Z,1022.46
2018-04-19T08:06:50.285Z,1022.46
2018-04-19T08:07:50.291Z,1022.46
2018-04-19T08:08:50.285Z,1022.44
2018-04-19T08:09:50.287Z,1022.49
2018-04-19T08:10:50.284Z,1022.53
2018-04-19T08:11:50.287Z,1022.55
2018-04-19T08:12:50.293Z,1022.51
2018-04-19T08:13:50.289Z,1022.51
2018-04-19T08:14:50.293Z,1022.49
2018-04-19T08:15:50.297Z,1022.52
2018-04-19T08:16:50.302Z,1022.50
2018-04-19T08:17:50.303Z,1022.51
2018-04-19T08:18:50.320Z,1022.52
2018-04-19T08:19:50.309Z,1022.49
2018-04-19T08:20:50.310Z,1022.55
2018-04-19T08:21:50.343Z,1022.51
2018-04-19T08:22:50.322Z,1022.53
2018-04-19T08:23:50.323Z,1022.53
2018-04-19T08:24:50.330Z,1022.50
2018-04-19T08:25:50.337Z,1022.52
2018-04-19T08:26:50.342Z,1022.46
2018-04-19T08:27:50.351Z,1022.50
2018-04-19T08:28:50.360Z,1022.50
2018-04-19T08:29:50.375Z,1022.55
2018-04-19T08:30:50.368Z,1022.51
2018-04-19T08:31:50.381Z,1022.53
2018-04-19T08:32:50.379Z,1022.52
2018-04-19T08:33:50.385Z,1022.54
2018-04-19T08:34:50.396Z,1022.48
2018-04-19T08:35:50.410Z,1022.49
2018-04-19T08:36:50.414Z,1022.49
2018-04-19T08:37:50.421Z,1022.52
2018-04-19T08:38:50.428Z,1022.50
2018-04-19T08:39:50.438Z,1022.47
2018-04-19T08:40:50.439Z,1022.46
2018-04-19T08:41:50.453Z,1022.45
2018-04-19T08:42:50.456Z,1022.43
2018-04-19T08:43:50.464Z,1022.43
2018-04-19T08:44:50.474Z,1022.42
2018-04-19T08:45:50.478Z,1022.43
2018-04-19T08:46:50.491Z,1022.41
2018-04-19T08:47:50.506Z,1022.41
2018-04-19T08:48:50.516Z,1022.40
2018-04-19T08:49:50.519Z,1022.40
2018-04-19T08:50:50.523Z,1022.43
2018-04-19T08:51:50.539Z,1022.41
2018-04-19T08:52:50.544Z,1022.36
2018-04-19T08:53:50.556Z,1022.38
2018-04-19T08:54:50.562Z,1022.44
2018-04-19T08:55:50.572Z,1022.38
2018-04-19T08:56:50.577Z,1022.38
2018-04-19T08:57:50.592Z,1022.37
2018-04-19T08:58:50.601Z,1022.34
2018-04-19T08:59:50.623Z,1022.36
2018-04-19T09:00:50.620Z,1022.36
2018-04-19T09:01:50.636Z,1022.36
2018-04-19T09:02:50.635Z,1022.35
2018-04-19T09:03:50.648Z,1022.35
2018-04-19T09:04:50.655Z,1022.33
2018-04-19T09:05:50.663Z,1022.31
2018-04-19T09:06:50.682Z,1022.33
2018-04-19T09:07:50.696Z,1022.33
2018-04-19T09:08:50.698Z,1022.34
2018-04-19T09:09:50.713Z,1022.34
2018-04-19T09:10:50.723Z,1022.36
2018-04-19T09:11:50.733Z,1022.33
2018-04-19T09:12:50.741Z,1022.33
2018-04-19T09:13:50.756Z,1022.33
2018-04-19T09:14:50.760Z,1022.36
2018-04-19T09:15:50.807Z,1022.34
2018-04-19T09:16:50.784Z,1022.37
2018-04-19T09:17:50.788Z,1022.34
2018-04-19T09:18:50.805Z,1022.33
2018-04-19T09:19:50.816Z,1022.33
2018-04-19T09:20:50.825Z,1022.31
2018-04-19T09:21:50.832Z,1022.33
2018-04-19T09:22:50.845Z,1022.30
2018-04-19T09:23:50.856Z,1022.31
2018-04-19T09:24:50.866Z,1022.23
2018-04-19T09:25:50.873Z,1022.24
2018-04-19T09:26:50.888Z,1022.26
2018-04-19T09:27:50.899Z,1022.25
2018-04-19T09:28:50.907Z,1022.23
2018-04-19T09:29:50.920Z,1022.24
2018-04-19T09:30:50.929Z,1022.21
2018-04-19T09:31:50.947Z,1022.25
2018-04-19T09:32:50.954Z,1022.20
2018-04-19T09:33:50.965Z,1022.22
2018-04-19T09:34:50.978Z,1022.19
2018-04-19T09:35:50.987Z,1022.22
2018-04-19T09:36:51.003Z,1022.19
2018-04-19T09:37:51.013Z,1022.21
2018-04-19T09:38:51.018Z,1022.15
2018-04-19T09:39:51.031Z,1022.20
2018-04-19T09:40:51.046Z,1022.16
2018-04-19T09:41:51.064Z,1022.22
2018-04-19T09:42:51.068Z,1022.14
2018-04-19T09:43:51.082Z,1022.16
2018-04-19T09:44:51.091Z,1022.14
2018-04-19T09:45:51.100Z,1022.14
2018-04-19T09:46:51.112Z,1022.13
2018-04-19T09:47:51.125Z,1022.16
2018-04-19T09:48:51.143Z,1022.03
2018-04-19T09:49:51.152Z,1022.19
2018-04-19T09:50:51.161Z,1022.14
2018-04-19T09:51:51.182Z,1022.11
2018-04-19T09:52:51.183Z,1022.15
2018-04-19T09:53:51.284Z,1022.14
2018-04-19T09:54:51.211Z,1022.10
2018-04-19T09:55:51.220Z,1022.09
2018-04-19T09:56:51.229Z,1022.10
2018-04-19T09:57:51.241Z,1022.02
2018-04-19T09:58:51.260Z,1022.07
2018-04-19T09:59:51.264Z,1022.07
2018-04-19T10:00:51.278Z,1022.06
2018-04-19T10:01:51.294Z,1022.05
2018-04-19T10:02:51.314Z,1022.06
2018-04-19T10:03:51.316Z,1022.07
2018-04-19T10:04:51.326Z,1022.04
2018-04-19T10:05:51.343Z,1022.03
2018-04-19T10:06:51.390Z,1022.03
2018-04-19T10:07:51.367Z,1022.05
2018-04-19T10:08:51.380Z,1022.07
2018-04-19T10:09:51.384Z,1022.08
2018-04-19T10:10:51.396Z,1022.06
2018-04-19T10:11:51.411Z,1022.01
2018-04-19T10:12:51.431Z,1022.01
2018-04-19T10:13:51.442Z,1022.04
2018-04-19T10:14:51.465Z,1022.02
2018-04-19T10:15:51.480Z,1022.01
2018-04-19T10:16:51.474Z,1022.00
2018-04-19T10:17:51.489Z,1022.03
2018-04-19T10:18:51.499Z,1022.06
2018-04-19T10:19:51.514Z,1022.06
2018-04-19T10:20:51.532Z,1022.08
2018-04-19T10:21:51.540Z,1021.96
2018-04-19T10:22:51.561Z,1021.99
2018-04-19T10:23:51.570Z,1021.99
2018-04-19T10:24:51.572Z,1021.96
2018-04-19T10:25:51.585Z,1021.99
2018-04-19T10:26:51.599Z,1021.96
2018-04-19T10:27:51.652Z,1022.03
2018-04-19T10:28:51.624Z,1021.96
2018-04-19T10:29:51.641Z,1021.94
2018-04-19T10:30:51.666Z,1021.88
2018-04-19T10:31:51.662Z,1021.89
2018-04-19T10:32:52.239Z,1021.89
2018-04-19T10:33:51.709Z,1021.87
2018-04-19T10:34:51.704Z,1021.88
2018-04-19T10:35:51.717Z,1021.89
2018-04-19T10:36:51.730Z,1021.86
2018-04-19T10:37:51.741Z,1021.92
2018-04-19T10:38:51.754Z,1021.88
2018-04-19T10:39:51.762Z,1021.89
2018-04-19T10:40:51.786Z,1021.88
2018-04-19T10:41:51.792Z,1021.80
2018-04-19T10:42:51.806Z,1021.85
2018-04-19T10:43:51.821Z,1021.84
2018-04-19T10:44:51.835Z,1021.82
2018-04-19T10:45:51.845Z,1021.79
2018-04-19T10:46:51.857Z,1021.76
2018-04-19T10:47:51.874Z,1021.74
2018-04-19T10:48:51.886Z,1021.78
2018-04-19T10:49:51.912Z,1021.71
2018-04-19T10:50:51.913Z,1021.73
2018-04-19T10:51:51.936Z,1021.69
2018-04-19T10:52:51.937Z,1021.68
2018-04-19T10:53:51.957Z,1021.74
2018-04-19T10:54:51.977Z,1021.71
2018-04-19T10:55:51.989Z,1021.69
2018-04-19T10:56:51.994Z,1021.74
2018-04-19T10:57:52.018Z,1021.70
2018-04-19T10:58:52.025Z,1021.76
2018-04-19T10:59:52.038Z,1021.69
2018-04-19T11:00:52.057Z,1021.63
2018-04-19T11:01:52.068Z,1021.70
2018-04-19T11:02:52.080Z,1021.67
2018-04-19T11:03:52.092Z,1021.66
2018-04-19T11:04:52.105Z,1021.70
2018-04-19T11:05:52.121Z,1021.68
2018-04-19T11:06:52.131Z,1021.65
2018-04-19T11:07:52.144Z,1021.69
2018-04-19T11:08:52.164Z,1021.65
2018-04-19T11:09:52.177Z,1021.67
2018-04-19T11:10:52.190Z,1021.59
2018-04-19T11:11:52.198Z,1021.59
2018-04-19T11:12:52.214Z,1021.58
2018-04-19T11:13:52.231Z,1021.56
2018-04-19T11:14:52.241Z,1021.55
2018-04-19T11:15:52.265Z,1021.56
2018-04-19T11:16:52.269Z,1021.49
2018-04-19T11:17:52.292Z,1021.59
2018-04-19T11:18:52.296Z,1021.54
2018-04-19T11:19:52.303Z,1021.51
2018-04-19T11:20:52.324Z,1021.53
2018-04-19T11:21:52.336Z,1021.49
2018-04-19T11:22:52.414Z,1021.50
2018-04-19T11:23:52.359Z,1021.53
2018-04-19T11:24:52.378Z,1021.47
2018-04-19T11:25:52.388Z,1021.49
2018-04-19T11:26:52.399Z,1021.47
2018-04-19T11:27:52.420Z,1021.44
2018-04-19T11:28:52.425Z,1021.44
2018-04-19T11:29:52.442Z,1021.46
2018-04-19T11:30:52.459Z,1021.42
2018-04-19T11:31:52.469Z,1021.45
2018-04-19T11:32:52.477Z,1021.39
2018-04-19T11:33:52.488Z,1021.42
2018-04-19T11:34:52.500Z,1021.34
2018-04-19T11:35:52.518Z,1021.40
2018-04-19T11:36:52.535Z,1021.36
2018-04-19T11:37:52.553Z,1021.34
2018-04-19T11:38:52.555Z,1021.35
2018-04-19T11:39:52.571Z,1021.39
2018-04-19T11:40:52.589Z,1021.36
2018-04-19T11:41:52.599Z,1021.34
2018-04-19T11:42:52.614Z,1021.33
2018-04-19T11:43:52.639Z,1021.37
2018-04-19T11:44:52.633Z,1021.34
2018-04-19T11:45:52.648Z,1021.30
2018-04-19T11:46:52.658Z,1021.27
2018-04-19T11:47:52.677Z,1021.27
2018-04-19T11:48:52.689Z,1021.25
2018-04-19T11:49:52.731Z,1021.29
2018-04-19T11:50:52.715Z,1021.29
2018-04-19T11:51:52.726Z,1021.31
2018-04-19T11:52:52.741Z,1021.30
2018-04-19T11:53:52.754Z,1021.30
2018-04-19T11:54:52.768Z,1021.29
2018-04-19T11:55:52.782Z,1021.27
2018-04-19T11:56:52.793Z,1021.23
2018-04-19T11:57:52.809Z,1021.29
2018-04-19T11:58:52.816Z,1021.29
2018-04-19T11:59:52.830Z,1021.20
2018-04-19T12:00:52.888Z,1021.20
2018-04-19T12:01:52.862Z,1021.24
2018-04-19T12:02:52.872Z,1021.22
2018-04-19T12:03:52.884Z,1021.22
2018-04-19T12:04:52.896Z,1021.23
2018-04-19T12:05:52.913Z,1021.25
2018-04-19T12:06:52.926Z,1021.19
2018-04-19T12:07:52.942Z,1021.21
2018-04-19T12:08:52.951Z,1021.19
2018-04-19T12:09:52.965Z,1021.18
2018-04-19T12:10:52.982Z,1021.20
2018-04-19T12:11:52.988Z,1021.16
2018-04-19T12:12:53.004Z,1021.18
2018-04-19T12:13:53.013Z,1021.15
2018-04-19T12:14:53.027Z,1021.12
2018-04-19T12:15:53.043Z,1021.14
2018-04-19T12:16:53.052Z,1021.15
2018-04-19T12:17:53.059Z,1021.15
2018-04-19T12:18:53.071Z,1021.07
2018-04-19T12:19:53.080Z,1021.10
2018-04-19T12:20:53.098Z,1021.08
2018-04-19T12:21:53.112Z,1021.13
2018-04-19T12:22:53.119Z,1021.11
2018-04-19T12:23:53.131Z,1021.07
2018-04-19T12:24:53.139Z,1021.09
2018-04-19T12:25:53.152Z,1021.11
2018-04-19T12:26:53.163Z,1021.05